Time;durP1;ratioP1;P1;durP2;ratioP2;P2;SDS_P1;SDS_P2;PMS_P1;PMS_P2;Temp;Humidity;BMP_temperature;BMP_pressure;BME280_temperature;BME280_humidity;BME280_pressure;Samples;Min_cycle;Max_cycle;Signal;HPM_P1;HPM_P2
2021/07/10 00:02:23;;;;;;;3.23;1.23;;;;;;;18.92;66.04;99085.44;125147;1093;64204;-80
2021/07/10 00:04:50;;;;;;;0.50;0.30;;;;;;;18.85;65.92;99082.49;125116;1093;64284;-80
2021/07/10 00:07:17;;;;;;;0.63;0.50;;;;;;;18.81;65.92;99086.52;125128;1093;64372;-81
2021/07/10 00:09:44;;;;;;;1.83;0.40;;;;;;;18.77;66.23;99079.71;125111;1093;64309;-80
2021/07/10 00:12:11;;;;;;;0.77;0.60;;;;;;;18.71;66.20;99078.44;125148;1093;64237;-80
2021/07/10 00:14:38;;;;;;;1.23;0.30;;;;;;;18.70;66.52;99086.71;125088;1093;64280;-79
2021/07/10 00:17:05;;;;;;;0.37;0.37;;;;;;;18.68;66.54;99094.11;124972;1093;64288;-80
2021/07/10 00:19:33;;;;;;;1.07;0.47;;;;;;;18.64;66.39;99096.23;124982;1093;64313;-80
2021/07/10 00:22:00;;;;;;;0.83;0.40;;;;;;;18.59;66.59;99104.81;125117;1093;64270;-79
2021/07/10 00:24:30;;;;;;;0.30;0.30;;;;;;;18.55;66.38;99102.56;125039;1093;64341;-79
2021/07/10 00:26:59;;;;;;;1.63;0.90;;;;;;;18.49;66.47;99103.17;125005;1092;64309;-81
2021/07/10 00:29:27;;;;;;;0.47;0.30;;;;;;;18.47;66.65;99102.47;125153;1091;64210;-81
2021/07/10 00:31:54;;;;;;;1.53;0.60;;;;;;;18.44;66.60;99103.62;125089;1093;64319;-79
2021/07/10 00:34:21;;;;;;;0.47;0.30;;;;;;;18.41;67.18;99110.16;125127;1093;64264;-81
2021/07/10 00:36:48;;;;;;;0.80;0.30;;;;;;;18.37;67.00;99108.75;125160;1093;64645;-80
2021/07/10 00:39:15;;;;;;;0.57;0.40;;;;;;;18.34;67.35;99111.75;125184;1093;64268;-81
2021/07/10 00:41:43;;;;;;;0.40;0.40;;;;;;;18.30;67.29;99110.38;125137;1093;64283;-79
2021/07/10 00:44:10;;;;;;;3.37;0.40;;;;;;;18.26;67.52;99118.90;125158;1093;64264;-79
2021/07/10 00:46:37;;;;;;;1.00;0.40;;;;;;;18.21;67.17;99127.43;125038;1092;64273;-79
2021/07/10 00:49:04;;;;;;;0.90;0.70;;;;;;;18.17;67.66;99136.84;125088;1091;64265;-79
2021/07/10 00:51:31;;;;;;;2.30;0.53;;;;;;;18.15;67.91;99142.36;125077;1092;64326;-81
2021/07/10 00:53:59;;;;;;;0.80;0.40;;;;;;;18.15;68.06;99146.91;125179;1092;64237;-79
2021/07/10 00:56:26;;;;;;;0.33;0.30;;;;;;;18.16;67.79;99156.70;125105;1092;64293;-79
2021/07/10 00:58:54;;;;;;;2.00;0.50;;;;;;;18.14;68.09;99148.77;125094;1093;64264;-79
2021/07/10 01:01:22;;;;;;;1.75;0.50;;;;;;;18.13;68.25;99157.00;125175;1093;64300;-79
2021/07/10 01:03:49;;;;;;;2.35;0.70;;;;;;;18.10;68.01;99154.59;125063;1093;64284;-81
2021/07/10 01:06:16;;;;;;;1.23;0.40;;;;;;;18.07;68.14;99144.95;125139;1093;64265;-80
2021/07/10 01:08:46;;;;;;;1.97;0.60;;;;;;;18.06;68.18;99145.08;125114;1092;64264;-80
2021/07/10 01:11:14;;;;;;;0.50;0.40;;;;;;;18.06;68.27;99150.48;125157;1093;64370;-80
2021/07/10 01:13:42;;;;;;;1.03;0.40;;;;;;;18.04;68.40;99145.25;125133;1093;65611;-80
2021/07/10 01:16:09;;;;;;;0.30;0.27;;;;;;;18.05;68.31;99140.70;125112;1093;64393;-80
2021/07/10 01:18:36;;;;;;;0.50;0.30;;;;;;;18.03;68.53;99151.63;125200;1091;64221;-80
2021/07/10 01:21:04;;;;;;;0.30;0.30;;;;;;;18.03;68.39;99157.02;125153;1093;64312;-80
2021/07/10 01:23:31;;;;;;;1.47;0.30;;;;;;;18.01;68.53;99155.45;125169;1093;64264;-80
2021/07/10 01:25:58;;;;;;;0.40;0.30;;;;;;;17.99;68.62;99152.92;125187;1092;64248;-80
2021/07/10 01:28:26;;;;;;;0.20;0.20;;;;;;;18.00;68.65;99157.31;125135;1093;64236;-80
2021/07/10 01:30:55;;;;;;;0.70;0.40;;;;;;;17.99;68.46;99156.47;125151;1093;64303;-80
2021/07/10 01:33:22;;;;;;;0.37;0.30;;;;;;;17.99;68.85;99161.86;125178;1093;64319;-80
2021/07/10 01:35:49;;;;;;;0.20;0.20;;;;;;;17.99;68.77;99161.02;125148;1093;64265;-79
2021/07/10 01:38:16;;;;;;;0.20;0.20;;;;;;;17.99;68.67;99167.25;125205;1093;64242;-80
2021/07/10 01:40:44;;;;;;;1.37;0.20;;;;;;;17.96;69.01;99164.85;125133;1093;64184;-81
2021/07/10 01:43:12;;;;;;;0.43;0.20;;;;;;;17.93;69.04;99162.45;125159;1093;64366;-80
2021/07/10 01:45:41;;;;;;;1.07;0.27;;;;;;;17.89;69.16;99165.58;125128;1093;64210;-81
2021/07/10 01:48:10;;;;;;;0.30;0.20;;;;;;;17.86;69.17;99164.02;125184;1093;64370;-80
2021/07/10 01:50:38;;;;;;;0.40;0.30;;;;;;;17.85;69.06;99158.77;125160;1093;64242;-79
2021/07/10 01:53:05;;;;;;;0.47;0.40;;;;;;;17.85;69.50;99162.33;124983;1093;64242;-79
2021/07/10 01:55:32;;;;;;;1.13;0.20;;;;;;;17.82;69.62;99165.30;125030;1092;64376;-80
2021/07/10 01:58:01;;;;;;;1.67;0.60;;;;;;;17.80;69.72;99166.43;125030;1092;64436;-80
2021/07/10 02:00:32;;;;;;;0.30;0.30;;;;;;;17.77;69.63;99171.11;125120;1093;64261;-82
2021/07/10 02:03:01;;;;;;;0.53;0.40;;;;;;;17.74;70.01;99162.44;125114;1093;64268;-80
2021/07/10 02:05:31;;;;;;;0.30;0.20;;;;;;;17.69;70.02;99165.59;125057;1093;64296;-80
2021/07/10 02:07:59;;;;;;;0.63;0.40;;;;;;;17.66;70.42;99159.61;125039;1093;64281;-80
2021/07/10 02:10:30;;;;;;;0.97;0.30;;;;;;;17.67;70.23;99158.64;125064;1092;64273;-80
2021/07/10 02:13:00;;;;;;;1.47;0.47;;;;;;;17.66;70.57;99151.53;125113;1093;64357;-81
2021/07/10 02:15:27;;;;;;;2.90;0.57;;;;;;;17.65;70.73;99155.23;125141;1092;64283;-80
2021/07/10 02:17:55;;;;;;;0.87;0.40;;;;;;;17.65;70.41;99163.31;125132;1092;64355;-78
2021/07/10 02:20:24;;;;;;;0.83;0.70;;;;;;;17.63;71.11;99165.30;125072;1093;64385;-76
2021/07/10 02:22:51;;;;;;;4.27;0.60;;;;;;;17.61;70.52;99162.73;125083;1092;64395;-77
2021/07/10 02:25:20;;;;;;;1.40;0.70;;;;;;;17.64;70.73;99159.78;125044;1093;64306;-77
2021/07/10 02:27:49;;;;;;;1.65;0.50;;;;;;;17.65;70.82;99158.77;125116;1093;64290;-77
2021/07/10 02:30:24;;;;;;;0.67;0.67;;;;;;;17.65;70.59;99166.02;125061;1093;64351;-75
2021/07/10 02:32:53;;;;;;;0.80;0.67;;;;;;;17.65;70.68;99164.16;125039;1092;64418;-75
2021/07/10 02:35:21;;;;;;;1.30;0.93;;;;;;;17.67;71.01;99162.18;125025;1093;64290;-76
2021/07/10 02:37:49;;;;;;;1.03;0.80;;;;;;;17.66;71.04;99160.46;125026;1093;64264;-77
2021/07/10 02:40:18;;;;;;;1.10;0.73;;;;;;;17.64;71.13;99157.08;125026;1093;64281;-76
2021/07/10 02:42:47;;;;;;;2.15;0.88;;;;;;;17.60;71.17;99158.34;125067;1093;64297;-76
2021/07/10 02:45:16;;;;;;;0.60;0.60;;;;;;;17.57;71.22;99163.19;125062;1093;64292;-76
2021/07/10 02:47:44;;;;;;;1.40;0.67;;;;;;;17.52;71.45;99161.76;125043;1093;64293;-76
2021/07/10 02:50:14;;;;;;;0.63;0.63;;;;;;;17.49;71.26;99169.28;125099;1093;64262;-76
2021/07/10 02:52:41;;;;;;;1.20;0.60;;;;;;;17.45;71.75;99166.00;125106;1092;64242;-76
2021/07/10 02:55:10;;;;;;;0.60;0.60;;;;;;;17.46;71.78;99174.97;125047;1092;64188;-77
2021/07/10 02:57:38;;;;;;;1.87;0.70;;;;;;;17.46;71.79;99174.97;124990;1093;64360;-77
2021/07/10 03:00:12;;;;;;;0.80;0.40;;;;;;;17.42;71.87;99185.16;124996;1093;64406;-78
2021/07/10 03:02:39;;;;;;;1.87;1.10;;;;;;;17.39;71.84;99190.83;124991;1093;64268;-77
2021/07/10 03:05:07;;;;;;;0.40;0.33;;;;;;;17.40;72.09;99192.52;125068;1093;64257;-77
2021/07/10 03:07:39;;;;;;;2.57;0.70;;;;;;;17.42;71.99;99192.39;125036;1093;64239;-77
2021/07/10 03:10:08;;;;;;;0.73;0.40;;;;;;;17.46;72.37;99191.13;124994;1091;64284;-76
2021/07/10 03:12:36;;;;;;;2.48;0.60;;;;;;;17.45;72.20;99182.17;124996;1092;64691;-78
2021/07/10 03:15:05;;;;;;;0.40;0.40;;;;;;;17.48;71.96;99181.04;125017;1092;64313;-78
2021/07/10 03:17:32;;;;;;;;;;;;;;;17.47;71.83;99185.58;125106;1093;64361;-77
2021/07/10 03:19:59;;;;;;;1.40;0.60;;;;;;;17.50;71.65;99189.84;125030;1093;64295;-77
2021/07/10 03:22:26;;;;;;;0.57;0.57;;;;;;;17.49;71.49;99194.38;125066;1093;64276;-77
2021/07/10 03:24:54;;;;;;;0.67;0.53;;;;;;;17.47;71.92;99182.89;125077;1093;64322;-77
2021/07/10 03:27:22;;;;;;;2.53;0.53;;;;;;;17.50;71.58;99182.59;124990;1093;64264;-77
2021/07/10 03:29:49;;;;;;;0.50;0.50;;;;;;;17.51;71.61;99178.93;125001;1093;64268;-77
2021/07/10 03:32:16;;;;;;;0.50;0.50;;;;;;;17.53;71.67;99176.92;124964;1093;64351;-75
2021/07/10 03:34:43;;;;;;;0.40;0.40;;;;;;;17.56;71.70;99183.87;124997;1093;64408;-76
2021/07/10 03:37:10;;;;;;;1.80;0.80;;;;;;;17.58;71.40;99186.44;125023;1093;64799;-75
2021/07/10 03:39:38;;;;;;;1.70;0.60;;;;;;;17.61;71.41;99183.45;124988;1093;64277;-77
2021/07/10 03:42:05;;;;;;;0.60;0.40;;;;;;;17.62;71.70;99180.63;125024;1093;64277;-77
2021/07/10 03:44:32;;;;;;;0.57;0.57;;;;;;;17.67;71.60;99182.90;124992;1092;64271;-78
2021/07/10 03:47:00;;;;;;;1.00;0.60;;;;;;;17.71;71.45;99192.38;124997;1093;64270;-77
2021/07/10 03:49:27;;;;;;;0.70;0.40;;;;;;;17.75;71.42;99189.27;125004;1093;64290;-77
2021/07/10 03:51:54;;;;;;;0.40;0.40;;;;;;;17.83;71.48;99195.83;125009;1093;64197;-77
2021/07/10 03:54:21;;;;;;;0.37;0.37;;;;;;;17.91;71.27;99188.70;125028;1092;64280;-77
2021/07/10 03:56:48;;;;;;;0.90;0.60;;;;;;;17.99;71.46;99191.52;125014;1093;64251;-77
2021/07/10 03:59:16;;;;;;;0.40;0.40;;;;;;;18.06;71.14;99186.41;125023;1092;64262;-82
2021/07/10 04:01:45;;;;;;;0.20;0.20;;;;;;;18.18;71.16;99185.22;125097;1093;64319;-82
2021/07/10 04:04:13;;;;;;;1.55;0.40;;;;;;;18.35;70.67;99185.45;125136;1093;64232;-82
2021/07/10 04:06:41;;;;;;;0.63;0.47;;;;;;;18.45;70.21;99193.52;125127;1092;64284;-82
2021/07/10 04:09:08;;;;;;;0.30;0.30;;;;;;;18.58;70.13;99186.77;125138;1092;64356;-82
2021/07/10 04:11:36;;;;;;;1.43;0.40;;;;;;;18.86;69.67;99182.27;125068;1093;64185;-82
2021/07/10 04:14:04;;;;;;;0.90;0.40;;;;;;;19.18;69.27;99180.08;125103;1093;64284;-82
2021/07/10 04:16:31;;;;;;;0.40;0.40;;;;;;;19.66;68.33;99177.00;125089;1093;64791;-83
2021/07/10 04:18:58;;;;;;;0.40;0.40;;;;;;;19.92;67.90;99184.31;125099;1092;64290;-82
2021/07/10 04:21:25;;;;;;;0.67;0.40;;;;;;;20.18;67.58;99170.79;125100;1093;64268;-83
2021/07/10 04:23:53;;;;;;;1.95;0.60;;;;;;;20.43;66.80;99177.17;125110;1093;64284;-83
2021/07/10 04:26:20;;;;;;;0.73;0.70;;;;;;;21.28;65.39;99168.21;125143;1093;64377;-82
2021/07/10 04:28:47;;;;;;;1.00;0.90;;;;;;;21.15;64.60;99169.53;125097;1093;64190;-80
2021/07/10 04:31:14;;;;;;;2.50;1.50;;;;;;;21.07;64.77;99176.80;125127;1093;64261;-82
2021/07/10 04:33:41;;;;;;;3.37;1.30;;;;;;;20.88;64.38;99186.91;125095;1093;64774;-82
2021/07/10 04:36:09;;;;;;;3.53;1.53;;;;;;;20.77;64.71;99188.06;125102;1093;64310;-82
2021/07/10 04:38:38;;;;;;;3.03;1.70;;;;;;;20.66;64.68;99182.06;125102;1092;64283;-81
2021/07/10 04:41:06;;;;;;;1.47;1.27;;;;;;;20.59;64.43;99182.73;125138;1093;64734;-81
2021/07/10 04:43:35;;;;;;;1.83;1.50;;;;;;;20.39;64.73;99176.66;125089;1092;64289;-82
2021/07/10 04:46:03;;;;;;;1.90;1.30;;;;;;;20.18;64.68;99181.62;125133;1093;64181;-82
2021/07/10 04:48:31;;;;;;;2.07;1.50;;;;;;;20.03;64.83;99184.05;125077;1093;64341;-81
2021/07/10 04:50:58;;;;;;;2.53;1.70;;;;;;;19.85;65.09;99183.23;125133;1092;64418;-82
2021/07/10 04:53:25;;;;;;;3.27;1.50;;;;;;;19.78;65.62;99190.30;125088;1093;64360;-82
2021/07/10 04:55:52;;;;;;;1.70;1.40;;;;;;;20.09;65.10;99187.97;125082;1093;64230;-83
2021/07/10 04:58:19;;;;;;;3.57;1.70;;;;;;;20.77;64.22;99187.19;125173;1093;64241;-82
2021/07/10 05:00:47;;;;;;;1.47;1.37;;;;;;;21.47;62.70;99192.32;125163;1090;64425;-82
2021/07/10 05:03:14;;;;;;;2.07;1.10;;;;;;;22.29;62.05;99195.87;125098;1092;64303;-82
2021/07/10 05:05:41;;;;;;;1.95;1.20;;;;;;;22.87;60.90;99190.25;125097;1092;64197;-82
2021/07/10 05:08:08;;;;;;;1.73;1.10;;;;;;;23.05;60.18;99193.59;125185;1092;64277;-82
2021/07/10 05:10:37;;;;;;;1.53;0.80;;;;;;;24.25;58.73;99190.30;125112;1093;64245;-82
2021/07/10 05:13:04;;;;;;;0.97;0.93;;;;;;;25.14;57.06;99190.28;125110;1093;64316;-82
2021/07/10 05:15:31;;;;;;;1.27;0.67;;;;;;;25.84;54.39;99192.34;125126;1092;64207;-82
2021/07/10 05:17:58;;;;;;;1.30;0.93;;;;;;;26.28;54.28;99188.50;125109;1091;64334;-82
2021/07/10 05:20:25;;;;;;;1.63;0.80;;;;;;;26.67;52.79;99188.97;125109;1093;64188;-82
2021/07/10 05:22:53;;;;;;;1.40;0.97;;;;;;;26.80;51.35;99196.39;125078;1093;64265;-82
2021/07/10 05:25:20;;;;;;;1.20;0.97;;;;;;;26.84;51.05;99193.06;125069;1091;64357;-83
2021/07/10 05:27:47;;;;;;;1.00;0.90;;;;;;;26.91;50.85;99195.84;125070;1093;64412;-82
2021/07/10 05:30:17;;;;;;;1.00;0.80;;;;;;;26.99;50.73;99205.73;125084;1093;64267;-82
2021/07/10 05:32:45;;;;;;;2.50;0.80;;;;;;;26.53;49.57;99204.45;125178;1093;64277;-82
2021/07/10 05:35:16;;;;;;;1.00;0.80;;;;;;;26.45;50.65;99207.31;125136;1093;64316;-81
2021/07/10 05:37:43;;;;;;;1.67;0.80;;;;;;;26.05;50.47;99212.48;125156;1093;64264;-81
2021/07/10 05:40:10;;;;;;;1.90;0.70;;;;;;;25.59;50.61;99215.58;125106;1093;64287;-81
2021/07/10 05:42:37;;;;;;;0.65;0.65;;;;;;;25.42;51.64;99219.61;125079;1092;64395;-82
2021/07/10 05:45:05;;;;;;;0.80;0.70;;;;;;;25.04;51.96;99215.16;125124;1093;64294;-82
2021/07/10 05:47:34;;;;;;;1.77;0.90;;;;;;;24.70;52.26;99223.92;125173;1093;64272;-82
2021/07/10 05:50:03;;;;;;;1.70;1.00;;;;;;;24.36;52.62;99225.28;125168;1092;64270;-81
2021/07/10 05:52:30;;;;;;;0.80;0.73;;;;;;;24.10;53.19;99222.97;125129;1093;64216;-81
2021/07/10 05:54:57;;;;;;;1.75;1.10;;;;;;;23.72;53.35;99222.09;125091;1093;64638;-81
2021/07/10 05:57:24;;;;;;;0.80;0.80;;;;;;;23.34;53.74;99230.14;125099;1091;64284;-81
2021/07/10 05:59:51;;;;;;;1.50;0.80;;;;;;;22.82;54.43;99228.81;125159;1093;64262;-82
2021/07/10 06:02:18;;;;;;;2.53;0.80;;;;;;;22.34;55.25;99246.95;125078;1093;64242;-83
2021/07/10 06:04:46;;;;;;;0.60;0.60;;;;;;;22.01;56.28;99246.08;125325;1091;64290;-83
2021/07/10 06:07:13;;;;;;;1.83;0.80;;;;;;;21.76;56.46;99246.09;125087;1093;64245;-81
2021/07/10 06:09:40;;;;;;;0.63;0.63;;;;;;;21.62;56.98;99244.05;125066;1093;64216;-82
2021/07/10 06:12:08;;;;;;;1.55;0.80;;;;;;;21.48;57.43;99245.53;125087;1091;64281;-81
2021/07/10 06:14:35;;;;;;;0.90;0.67;;;;;;;21.34;57.94;99254.29;125065;1093;64197;-82
2021/07/10 06:17:03;;;;;;;1.30;0.93;;;;;;;21.33;58.20;99252.57;125187;1093;64241;-83
2021/07/10 06:19:30;;;;;;;1.43;1.10;;;;;;;21.32;58.52;99259.02;125130;1093;64306;-82
2021/07/10 06:21:58;;;;;;;0.90;0.80;;;;;;;21.58;58.71;99258.95;125137;1093;64284;-83
2021/07/10 06:24:26;;;;;;;1.23;0.80;;;;;;;22.07;58.03;99259.84;125068;1093;64304;-82
2021/07/10 06:26:54;;;;;;;2.47;1.27;;;;;;;22.35;57.71;99259.49;125062;1092;64321;-83
2021/07/10 06:29:21;;;;;;;1.57;1.03;;;;;;;22.41;57.35;99263.38;125110;1093;64433;-81
2021/07/10 06:31:48;;;;;;;1.67;1.47;;;;;;;22.75;57.10;99253.14;125098;1092;64287;-83
2021/07/10 06:34:17;;;;;;;1.93;1.43;;;;;;;23.03;56.79;99260.03;125065;1093;64281;-82
2021/07/10 06:36:44;;;;;;;1.40;1.30;;;;;;;23.72;55.67;99258.30;125025;1093;64268;-83
2021/07/10 06:39:11;;;;;;;1.10;1.00;;;;;;;24.15;55.44;99250.50;125070;1093;64412;-82
2021/07/10 06:41:38;;;;;;;2.05;1.50;;;;;;;24.56;54.69;99269.19;125039;1093;64277;-81
2021/07/10 06:44:06;;;;;;;2.67;1.23;;;;;;;25.43;53.63;99257.59;125065;1093;64283;-82
2021/07/10 06:46:34;;;;;;;1.97;1.30;;;;;;;26.10;52.28;99256.45;125073;1093;64386;-82
2021/07/10 06:49:02;;;;;;;2.17;1.00;;;;;;;26.65;51.35;99249.33;125116;1093;64310;-81
2021/07/10 06:51:29;;;;;;;2.47;0.70;;;;;;;26.18;49.84;99250.00;125082;1092;64146;-82
2021/07/10 06:53:56;;;;;;;2.20;0.90;;;;;;;26.21;50.58;99253.17;125115;1090;64188;-82
2021/07/10 06:56:23;;;;;;;1.27;0.83;;;;;;;26.32;50.75;99243.59;125110;1093;64269;-81
2021/07/10 06:58:51;;;;;;;2.60;0.93;;;;;;;26.50;50.35;99237.63;125214;1093;64290;-80
2021/07/10 07:01:18;;;;;;;2.30;1.20;;;;;;;26.53;50.03;99248.19;125055;1091;64241;-81
2021/07/10 07:03:45;;;;;;;4.30;1.20;;;;;;;26.65;50.04;99248.49;125049;1093;64358;-81
2021/07/10 07:06:12;;;;;;;1.43;0.90;;;;;;;26.56;48.94;99239.58;125097;1093;64364;-81
2021/07/10 07:08:39;;;;;;;1.37;1.10;;;;;;;26.03;49.34;99241.88;125108;1092;64188;-82
2021/07/10 07:11:06;;;;;;;1.43;1.13;;;;;;;25.56;49.41;99245.99;125093;1093;64267;-83
2021/07/10 07:13:34;;;;;;;2.30;1.10;;;;;;;25.18;49.60;99249.76;125092;1092;64361;-81
2021/07/10 07:16:01;;;;;;;1.17;1.07;;;;;;;24.68;49.99;99254.08;125096;1092;64387;-82
2021/07/10 07:18:28;;;;;;;1.37;0.93;;;;;;;24.40;50.64;99258.43;125134;1093;64338;-81
2021/07/10 07:20:55;;;;;;;1.27;0.93;;;;;;;24.28;51.12;99247.99;125088;1093;64265;-82
2021/07/10 07:23:23;;;;;;;1.73;1.10;;;;;;;24.23;51.22;99249.58;125104;1093;64193;-82
2021/07/10 07:25:50;;;;;;;3.10;1.30;;;;;;;24.33;51.66;99247.45;125127;1093;64287;-81
2021/07/10 07:28:17;;;;;;;1.25;1.05;;;;;;;24.95;51.08;99240.82;125105;1093;64433;-82
2021/07/10 07:30:44;;;;;;;1.97;1.30;;;;;;;25.50;50.79;99246.77;125097;1093;64219;-82
2021/07/10 07:33:12;;;;;;;1.90;1.20;;;;;;;25.78;49.98;99239.52;125061;1093;64221;-82
2021/07/10 07:35:40;;;;;;;1.23;1.10;;;;;;;25.88;49.64;99244.66;125143;1093;64142;-82
2021/07/10 07:38:07;;;;;;;1.27;1.00;;;;;;;25.92;49.00;99253.33;125147;1093;64287;-82
2021/07/10 07:40:34;;;;;;;2.47;1.17;;;;;;;25.71;49.31;99240.48;125118;1092;64756;-83
2021/07/10 07:43:02;;;;;;;1.93;0.90;;;;;;;25.36;47.84;99252.08;125111;1093;64419;-84
2021/07/10 07:45:29;;;;;;;2.00;1.30;;;;;;;24.77;48.89;99246.65;125087;1093;64226;-81
2021/07/10 07:47:56;;;;;;;2.05;1.00;;;;;;;24.55;49.51;99250.32;125110;1091;64303;-83
2021/07/10 07:50:23;;;;;;;1.77;1.13;;;;;;;24.46;49.88;99247.69;125101;1093;64249;-80
2021/07/10 07:52:50;;;;;;;1.03;0.87;;;;;;;24.51;49.00;99249.83;125079;1093;64280;-81
2021/07/10 07:55:18;;;;;;;2.30;1.30;;;;;;;24.48;49.00;99244.75;125105;1092;64361;-83
2021/07/10 07:57:45;;;;;;;2.00;0.80;;;;;;;24.05;49.49;99253.47;125091;1093;64188;-81
2021/07/10 08:00:19;;;;;;;2.03;1.23;;;;;;;23.87;50.60;99253.77;125109;1093;64268;-82
2021/07/10 08:02:50;;;;;;;2.35;1.10;;;;;;;23.87;50.52;99256.50;125128;1093;64284;-82
2021/07/10 08:05:18;;;;;;;1.10;1.00;;;;;;;24.16;50.63;99251.34;125039;1093;64267;-82
2021/07/10 08:07:46;;;;;;;0.93;0.93;;;;;;;24.50;50.57;99248.98;125102;1093;64276;-82
2021/07/10 08:10:16;;;;;;;1.00;0.90;;;;;;;24.79;50.38;99246.48;125091;1093;64248;-82
2021/07/10 08:12:46;;;;;;;0.80;0.80;;;;;;;25.17;49.38;99245.35;125142;1093;64295;-82
2021/07/10 08:15:15;;;;;;;1.55;1.30;;;;;;;25.40;50.21;99247.07;125233;1091;64319;-80
2021/07/10 08:17:43;;;;;;;1.13;0.90;;;;;;;25.23;49.14;99243.73;125145;1092;64283;-81
2021/07/10 08:20:12;;;;;;;1.35;0.80;;;;;;;25.07;48.53;99254.84;125132;1093;64197;-82
2021/07/10 08:22:40;;;;;;;1.37;0.70;;;;;;;24.58;48.98;99250.78;125123;1093;64197;-81
2021/07/10 08:25:09;;;;;;;1.47;0.90;;;;;;;24.33;49.49;99252.89;125160;1093;64267;-81
2021/07/10 08:27:36;;;;;;;0.97;0.77;;;;;;;24.15;49.25;99245.05;125127;1092;64312;-80
2021/07/10 08:30:05;;;;;;;1.03;0.80;;;;;;;23.89;49.99;99253.61;125187;1093;64396;-80
2021/07/10 08:32:33;;;;;;;0.77;0.70;;;;;;;23.95;50.07;99252.03;125202;1090;64316;-80
2021/07/10 08:35:00;;;;;;;1.37;1.00;;;;;;;23.84;50.67;99250.58;125036;1091;64316;-81
2021/07/10 08:37:27;;;;;;;1.90;0.80;;;;;;;24.20;51.23;99247.23;125156;1092;64284;-80
2021/07/10 08:39:54;;;;;;;1.17;1.07;;;;;;;24.31;50.26;99249.50;125144;1092;64248;-80
2021/07/10 08:42:21;;;;;;;1.30;0.97;;;;;;;24.38;49.30;99258.63;125169;1093;64306;-80
2021/07/10 08:44:53;;;;;;;1.87;1.20;;;;;;;24.53;49.08;99262.23;125183;1093;64485;-81
2021/07/10 08:47:20;;;;;;;3.37;0.90;;;;;;;24.64;49.70;99250.02;125128;1092;64294;-80
2021/07/10 08:49:48;;;;;;;10.23;1.00;;;;;;;24.83;49.89;99254.09;125108;1093;64271;-80
2021/07/10 08:52:16;;;;;;;3.87;1.20;;;;;;;24.82;49.76;99254.27;125147;1092;64325;-81
2021/07/10 08:54:43;;;;;;;3.23;1.27;;;;;;;24.71;49.73;99258.31;125093;1093;64422;-80
2021/07/10 08:57:13;;;;;;;0.90;0.70;;;;;;;24.92;49.53;99252.95;125135;1093;64159;-81
2021/07/10 08:59:40;;;;;;;0.70;0.70;;;;;;;24.65;48.48;99259.08;125083;1093;64621;-80
2021/07/10 09:02:08;;;;;;;0.73;0.73;;;;;;;24.56;48.91;99254.72;125122;1093;64248;-81
2021/07/10 09:04:36;;;;;;;4.53;1.47;;;;;;;24.54;48.66;99257.66;125149;1093;64191;-81
2021/07/10 09:07:03;;;;;;;6.40;1.80;;;;;;;24.52;48.99;99257.83;125129;1090;64210;-82
2021/07/10 09:09:45;;;;;;;18.77;3.20;;;;;;;24.55;48.86;99253.89;125094;1090;64210;-80
2021/07/10 09:12:13;;;;;;;2.03;1.20;;;;;;;24.43;49.46;99261.62;125180;1090;64272;-80
2021/07/10 09:14:42;;;;;;;12.00;2.27;;;;;;;24.45;49.73;99248.70;125159;1090;64267;-81
2021/07/10 09:17:18;;;;;;;3.53;1.03;;;;;;;24.67;49.13;99260.58;125145;1090;64248;-81
2021/07/10 09:19:47;;;;;;;48.53;6.40;;;;;;;24.89;49.45;99247.04;125188;1090;64257;-81
2021/07/10 09:22:30;;;;;;;30.40;4.80;;;;;;;25.38;49.87;99238.23;125232;1089;64314;-81
2021/07/10 09:24:59;;;;;;;47.03;6.90;;;;;;;25.90;48.98;99237.13;125181;1090;64245;-80
2021/07/10 09:27:27;;;;;;;2.87;1.40;;;;;;;26.09;48.44;99242.97;125161;1090;64307;-80
2021/07/10 09:29:54;;;;;;;1.20;1.10;;;;;;;25.99;48.44;99244.16;125151;1090;64188;-80
2021/07/10 09:32:24;;;;;;;1.73;1.20;;;;;;;25.73;48.11;99241.98;125055;1090;64294;-80
2021/07/10 09:34:57;;;;;;;2.93;1.30;;;;;;;25.50;48.79;99249.50;125133;1089;64406;-80
2021/07/10 09:37:29;;;;;;;2.17;1.97;;;;;;;25.30;48.69;99251.98;125024;1090;64153;-80
2021/07/10 09:40:03;;;;;;;1.10;1.00;;;;;;;25.22;48.79;99249.38;125071;1090;64268;-80
2021/07/10 09:42:35;;;;;;;1.10;1.00;;;;;;;25.32;48.80;99255.38;125021;1089;64278;-80
2021/07/10 09:45:06;;;;;;;1.10;1.00;;;;;;;25.24;47.87;99252.77;125041;1090;64295;-81
2021/07/10 09:47:37;;;;;;;1.77;1.03;;;;;;;25.22;47.87;99255.67;125193;1090;64421;-80
2021/07/10 09:50:07;;;;;;;1.40;1.30;;;;;;;25.48;48.28;99257.03;125159;1090;64242;-80
2021/07/10 09:52:38;;;;;;;1.90;1.73;;;;;;;26.05;48.33;99259.75;125182;1090;64276;-81
2021/07/10 09:55:10;;;;;;;1.70;1.60;;;;;;;26.34;47.82;99251.59;125153;1090;64273;-81
2021/07/10 09:57:39;;;;;;;1.97;1.70;;;;;;;26.46;47.67;99250.86;125129;1090;64393;-79
2021/07/10 10:00:07;;;;;;;1.80;1.17;;;;;;;26.50;46.81;99251.30;125142;1090;64190;-80
2021/07/10 10:02:43;;;;;;;2.75;1.40;;;;;;;26.34;46.34;99252.44;125146;1090;64637;-79
2021/07/10 10:05:13;;;;;;;2.47;1.03;;;;;;;26.13;46.81;99253.31;125029;1090;64267;-80
2021/07/10 10:07:52;;;;;;;0.90;0.90;;;;;;;26.10;46.72;99258.34;125149;1090;64268;-80
2021/07/10 10:10:31;;;;;;;1.67;1.00;;;;;;;25.96;46.58;99255.48;125157;1090;64244;-80
2021/07/10 10:13:20;;;;;;;1.57;0.90;;;;;;;26.05;46.63;99258.92;125135;1090;64232;-81
2021/07/10 10:15:52;;;;;;;0.80;0.80;;;;;;;26.14;45.65;99265.92;125156;1090;64255;-81
2021/07/10 10:18:23;;;;;;;0.80;0.80;;;;;;;26.22;46.47;99263.05;125170;1090;64267;-80
2021/07/10 10:20:53;;;;;;;3.17;1.00;;;;;;;26.43;46.57;99255.86;125176;1090;64348;-80
2021/07/10 10:23:22;;;;;;;2.80;1.00;;;;;;;26.74;45.72;99263.68;125136;1090;64409;-80
2021/07/10 10:25:49;;;;;;;;;;;;;;;26.91;45.25;99264.22;125201;1089;64287;-80
2021/07/10 10:28:20;;;;;;;1.07;0.97;;;;;;;27.03;45.48;99265.31;125125;1090;64268;-80
2021/07/10 10:30:53;;;;;;;1.10;1.00;;;;;;;27.07;45.92;99265.78;125198;1090;64635;-80
2021/07/10 10:33:21;;;;;;;1.00;1.00;;;;;;;27.14;45.12;99263.89;125147;1089;64310;-80
2021/07/10 10:35:50;;;;;;;2.18;0.90;;;;;;;27.04;44.49;99261.55;125149;1090;64340;-80
2021/07/10 10:38:18;;;;;;;1.50;0.80;;;;;;;26.79;44.17;99252.15;125097;1090;64264;-81
2021/07/10 10:40:48;;;;;;;3.20;1.53;;;;;;;26.59;44.45;99255.58;125106;1091;64331;-80
2021/07/10 10:43:17;;;;;;;0.90;0.90;;;;;;;26.60;45.28;99254.55;125181;1088;64284;-81
2021/07/10 10:45:46;;;;;;;1.95;1.05;;;;;;;26.68;44.80;99248.09;125127;1090;64281;-81
2021/07/10 10:48:33;;;;;;;1.48;0.98;;;;;;;26.60;43.89;99248.25;125126;1090;64331;-81
2021/07/10 10:51:00;;;;;;;3.60;0.90;;;;;;;26.59;43.34;99246.54;125162;1089;64185;-80
2021/07/10 10:53:28;;;;;;;0.67;0.67;;;;;;;26.64;42.85;99244.05;125191;1091;64259;-80
2021/07/10 10:55:55;;;;;;;1.47;0.60;;;;;;;26.53;43.79;99241.88;125195;1090;64280;-80
2021/07/10 10:58:29;;;;;;;3.50;1.00;;;;;;;26.62;43.93;99241.53;125163;1090;64252;-81
2021/07/10 11:01:21;;;;;;;1.27;0.97;;;;;;;26.80;44.11;99246.45;125154;1090;64242;-81
2021/07/10 11:03:48;;;;;;;0.90;0.90;;;;;;;26.36;44.15;99239.42;125093;1090;64396;-79
2021/07/10 11:06:30;;;;;;;1.70;0.83;;;;;;;25.90;45.15;99245.33;125085;1090;64354;-79
2021/07/10 11:08:58;;;;;;;1.43;0.90;;;;;;;25.44;45.79;99255.73;125210;1091;64290;-79
2021/07/10 11:11:34;;;;;;;1.30;1.20;;;;;;;25.17;46.08;99247.20;125114;1090;64324;-80
2021/07/10 11:14:10;;;;;;;1.80;1.00;;;;;;;25.19;47.01;99243.25;125085;1090;64412;-80
2021/07/10 11:17:02;;;;;;;2.55;0.80;;;;;;;25.47;47.92;99241.70;125177;1090;64749;-80
2021/07/10 11:19:49;;;;;;;0.93;0.90;;;;;;;25.78;46.77;99235.95;125165;1090;64287;-80
2021/07/10 11:22:56;;;;;;;1.80;1.13;;;;;;;25.70;46.35;99239.65;125123;1090;64263;-80
2021/07/10 11:26:12;;;;;;;2.20;1.30;;;;;;;25.59;46.09;99238.28;125129;1090;64268;-80
2021/07/10 11:28:51;;;;;;;1.85;1.10;;;;;;;25.68;45.96;99232.70;125004;1091;64278;-81
2021/07/10 11:31:33;;;;;;;2.37;1.00;;;;;;;25.88;46.54;99236.47;125083;1090;64150;-80
2021/07/10 11:34:07;;;;;;;2.57;1.30;;;;;;;26.13;46.30;99239.66;125163;1090;64268;-82
2021/07/10 11:36:34;;;;;;;1.70;0.87;;;;;;;26.26;45.81;99239.77;125170;1090;64268;-79